Time;durP1;ratioP1;P1;durP2;ratioP2;P2;SDS_P1;SDS_P2;PMS_P1;PMS_P2;Temp;Humidity;BMP_temperature;BMP_pressure;BME280_temperature;BME280_humidity;BME280_pressure;Samples;Min_cycle;Max_cycle;Signal;HPM_P1;HPM_P2
2023/03/03 00:01:26;;;;;;;;;;;;;;;;;;5109227;28;20302;-72
2023/03/03 00:04:02;;;;;;;3.05;1.13;;;;;;;;;;5109128;28;19927;-74
2023/03/03 00:06:41;;;;;;;1.40;0.90;;;;;;;;;;5107562;28;20086;-73
2023/03/03 00:09:19;;;;;;;4.20;1.20;;;;;;;;;;5108491;28;20062;-73
2023/03/03 00:11:58;;;;;;;;;;;;;;;;;;5107833;28;20051;-72
2023/03/03 00:14:34;;;;;;;7.47;1.13;;;;;;;;;;5105244;28;19927;-71
2023/03/03 00:17:26;;;;;;;1.83;1.50;;;;;;;;;;5108741;28;20043;-72
2023/03/03 00:20:22;;;;;;;2.28;1.38;;;;;;;;;;5107487;28;20047;-74
2023/03/03 00:22:52;;;;;;;1.70;0.95;;;;;;;;;;5108478;28;20047;-72
2023/03/03 00:25:27;;;;;;;2.33;1.23;;;;;;;;;;5108189;28;20047;-74
2023/03/03 00:28:30;;;;;;;1.52;1.00;;;;;;;;;;5108478;28;20054;-73
2023/03/03 00:31:14;;;;;;;1.83;1.10;;;;;;;;;;5117351;27;20046;-75
2023/03/03 00:33:54;;;;;;;4.03;1.35;;;;;;;;;;5127893;27;20059;-74
2023/03/03 00:36:38;;;;;;;4.07;1.60;;;;;;;;;;5128675;27;20066;-75
2023/03/03 00:39:18;;;;;;;2.72;1.25;;;;;;;;;;5127719;27;20421;-72
2023/03/03 00:41:48;;;;;;;2.55;1.35;;;;;;;;;;5129262;27;20050;-76
2023/03/03 00:44:42;;;;;;;4.82;1.52;;;;;;;;;;5127861;27;20043;-74
2023/03/03 00:47:31;;;;;;;6.03;1.48;;;;;;;;;;5128433;27;20039;-75
2023/03/03 00:50:11;;;;;;;5.30;1.30;;;;;;;;;;5128151;27;20489;-73
2023/03/03 00:53:13;;;;;;;5.75;1.33;;;;;;;;;;5128393;27;20409;-77
2023/03/03 00:55:46;;;;;;;3.67;1.70;;;;;;;;;;5121348;27;20069;-75
2023/03/03 00:58:20;;;;;;;2.40;1.73;;;;;;;;;;5126256;27;20117;-72
2023/03/03 01:00:53;;;;;;;2.88;1.70;;;;;;;;;;5126260;27;20051;-75
2023/03/03 01:03:28;;;;;;;3.85;1.48;;;;;;;;;;5125920;27;20054;-73
2023/03/03 01:05:58;;;;;;;2.35;1.13;;;;;;;;;;5126321;27;20055;-76
2023/03/03 01:08:30;;;;;;;3.97;1.55;;;;;;;;;;5125831;27;20066;-74
2023/03/03 01:11:19;;;;;;;5.30;1.30;;;;;;;;;;5128253;27;20457;-75
2023/03/03 01:13:51;;;;;;;2.33;1.25;;;;;;;;;;5128096;27;20051;-72
2023/03/03 01:16:23;;;;;;;2.50;1.40;;;;;;;;;;5127180;27;20043;-74
2023/03/03 01:18:54;;;;;;;2.78;1.73;;;;;;;;;;5126036;27;20078;-74
2023/03/03 01:21:25;;;;;;;3.92;1.98;;;;;;;;;;5109828;27;20055;-72
2023/03/03 01:23:55;;;;;;;4.13;1.80;;;;;;;;;;5110146;27;20052;-75
2023/03/03 01:26:26;;;;;;;2.97;1.42;;;;;;;;;;5114648;27;20050;-75
2023/03/03 01:28:56;;;;;;;5.60;1.55;;;;;;;;;;5116296;27;20062;-74
2023/03/03 01:31:29;;;;;;;4.43;1.30;;;;;;;;;;5115733;27;20078;-75
2023/03/03 01:33:59;;;;;;;3.42;1.17;;;;;;;;;;5115596;27;20054;-74
2023/03/03 01:36:30;;;;;;;5.03;1.40;;;;;;;;;;5116536;28;20042;-74
2023/03/03 01:39:01;;;;;;;2.88;1.45;;;;;;;;;;5112763;27;20409;-74
2023/03/03 01:41:33;;;;;;;4.38;1.70;;;;;;;;;;5114771;27;20047;-75
2023/03/03 01:44:03;;;;;;;3.47;1.40;;;;;;;;;;5113571;27;20135;-73
2023/03/03 01:46:54;;;;;;;2.75;1.08;;;;;;;;;;5117284;28;20058;-75
2023/03/03 01:49:54;;;;;;;2.75;1.75;;;;;;;;;;5126850;28;20047;-74
2023/03/03 01:52:32;;;;;;;2.45;1.55;;;;;;;;;;5125920;28;20051;-74
2023/03/03 01:55:08;;;;;;;3.80;1.42;;;;;;;;;;5128108;28;20043;-76
2023/03/03 01:57:45;;;;;;;1.83;1.30;;;;;;;;;;5126477;28;20048;-76
2023/03/03 02:00:16;;;;;;;1.73;1.00;;;;;;;;;;5125758;28;20047;-74
2023/03/03 02:02:49;;;;;;;2.13;1.33;;;;;;;;;;5125999;28;20055;-73
2023/03/03 02:05:20;;;;;;;4.70;1.67;;;;;;;;;;5127945;28;20039;-73
2023/03/03 02:07:51;;;;;;;3.25;1.52;;;;;;;;;;5126377;28;20051;-74
2023/03/03 02:10:22;;;;;;;2.13;1.20;;;;;;;;;;5127495;28;20058;-72
2023/03/03 02:12:55;;;;;;;3.88;1.50;;;;;;;;;;5125375;28;20535;-71
2023/03/03 02:15:34;;;;;;;2.92;1.60;;;;;;;;;;5129216;27;20054;-76
2023/03/03 02:18:18;;;;;;;2.55;1.23;;;;;;;;;;5131823;27;20401;-73
2023/03/03 02:20:57;;;;;;;3.00;1.20;;;;;;;;;;5130226;27;20047;-74
2023/03/03 02:23:50;;;;;;;2.38;1.50;;;;;;;;;;5131792;27;20035;-75
2023/03/03 02:26:23;;;;;;;;;;;;;;;;;;5130266;27;20046;-74
2023/03/03 02:28:58;;;;;;;5.75;1.58;;;;;;;;;;5129461;27;19919;-74
2023/03/03 02:31:31;;;;;;;3.83;1.50;;;;;;;;;;5129406;27;20058;-74
2023/03/03 02:34:02;;;;;;;1.98;1.38;;;;;;;;;;5131208;27;20074;-73
2023/03/03 02:36:36;;;;;;;7.15;1.38;;;;;;;;;;5129424;27;20046;-75
2023/03/03 02:39:22;;;;;;;8.88;1.65;;;;;;;;;;5130894;27;20047;-75
2023/03/03 02:42:07;;;;;;;3.00;1.50;;;;;;;;;;5130942;27;20034;-75
2023/03/03 02:44:47;;;;;;;7.35;2.00;;;;;;;;;;5129287;27;20078;-74
2023/03/03 02:47:17;;;;;;;4.00;1.60;;;;;;;;;;5131102;27;20043;-76
2023/03/03 02:49:47;;;;;;;2.00;1.50;;;;;;;;;;5131053;27;20047;-75
2023/03/03 02:52:19;;;;;;;5.68;1.65;;;;;;;;;;5130346;27;20054;-75
2023/03/03 02:54:50;;;;;;;5.32;1.65;;;;;;;;;;5129103;27;20051;-74
2023/03/03 02:57:20;;;;;;;4.72;1.42;;;;;;;;;;5129238;27;21048;-74
2023/03/03 02:59:50;;;;;;;2.38;1.58;;;;;;;;;;5128729;27;20055;-74
2023/03/03 03:02:21;;;;;;;6.18;1.73;;;;;;;;;;5128654;27;20055;-76
2023/03/03 03:04:52;;;;;;;4.10;1.63;;;;;;;;;;5128060;27;20082;-75
2023/03/03 03:07:25;;;;;;;5.82;1.80;;;;;;;;;;5129032;27;20061;-74
2023/03/03 03:09:55;;;;;;;3.83;1.65;;;;;;;;;;5129137;27;20050;-75
2023/03/03 03:12:28;;;;;;;8.02;1.92;;;;;;;;;;5128407;27;20525;-72
2023/03/03 03:15:02;;;;;;;8.45;1.90;;;;;;;;;;5112248;27;20047;-73
2023/03/03 03:17:32;;;;;;;2.60;1.50;;;;;;;;;;5130531;27;20047;-74
2023/03/03 03:20:02;;;;;;;5.30;1.80;;;;;;;;;;5128663;27;20059;-73
2023/03/03 03:22:35;;;;;;;3.40;1.80;;;;;;;;;;5128404;27;20050;-75
2023/03/03 03:25:07;;;;;;;4.88;1.80;;;;;;;;;;5127968;27;20039;-75
2023/03/03 03:27:38;;;;;;;4.93;1.58;;;;;;;;;;5111279;27;20055;-72
2023/03/03 03:30:09;;;;;;;2.67;1.35;;;;;;;;;;5128391;27;20062;-73
2023/03/03 03:32:39;;;;;;;3.38;1.55;;;;;;;;;;5128230;27;20543;-75
2023/03/03 03:35:10;;;;;;;6.18;1.70;;;;;;;;;;5128164;27;20051;-72
2023/03/03 03:37:40;;;;;;;3.53;1.40;;;;;;;;;;5127617;27;20051;-71
2023/03/03 03:40:11;;;;;;;5.22;1.88;;;;;;;;;;5127611;27;20058;-76
2023/03/03 03:42:42;;;;;;;6.57;1.90;;;;;;;;;;5128250;27;20043;-76
2023/03/03 03:45:15;;;;;;;3.72;1.17;;;;;;;;;;5130387;27;20035;-73
2023/03/03 03:47:47;;;;;;;4.05;1.60;;;;;;;;;;5127494;27;20054;-75
2023/03/03 03:50:18;;;;;;;6.57;1.30;;;;;;;;;;5128081;27;20433;-75
2023/03/03 03:52:50;;;;;;;1.52;1.38;;;;;;;;;;5110687;27;20039;-72
2023/03/03 03:55:21;;;;;;;6.93;1.58;;;;;;;;;;5127625;27;20047;-72
2023/03/03 03:57:51;;;;;;;2.88;1.50;;;;;;;;;;5127845;27;20050;-74
2023/03/03 04:00:22;;;;;;;3.28;1.23;;;;;;;;;;5127559;27;20047;-75
2023/03/03 04:02:57;;;;;;;3.72;1.45;;;;;;;;;;5127268;27;20047;-73
2023/03/03 04:05:30;;;;;;;3.85;1.83;;;;;;;;;;5128044;27;20058;-75
2023/03/03 04:08:02;;;;;;;6.78;1.45;;;;;;;;;;5129402;27;20390;-74
2023/03/03 04:10:34;;;;;;;3.67;1.40;;;;;;;;;;5128274;27;20062;-72
2023/03/03 04:13:05;;;;;;;5.68;1.38;;;;;;;;;;5127291;27;20047;-73
2023/03/03 04:15:36;;;;;;;3.88;1.48;;;;;;;;;;5127247;27;20406;-74
2023/03/03 04:18:07;;;;;;;5.50;1.23;;;;;;;;;;5127165;27;20444;-73
2023/03/03 04:20:40;;;;;;;4.13;1.77;;;;;;;;;;5127272;27;20062;-73
2023/03/03 04:23:13;;;;;;;2.90;1.35;;;;;;;;;;5126873;27;20425;-74
2023/03/03 04:25:46;;;;;;;4.50;1.50;;;;;;;;;;5129390;27;20054;-73
2023/03/03 04:28:18;;;;;;;3.50;1.60;;;;;;;;;;5126320;27;20054;-74
2023/03/03 04:30:49;;;;;;;4.60;1.60;;;;;;;;;;5127480;27;20066;-73
2023/03/03 04:33:22;;;;;;;2.33;1.33;;;;;;;;;;5129317;27;20043;-74
2023/03/03 04:35:52;;;;;;;3.20;1.52;;;;;;;;;;5128115;27;20673;-72
2023/03/03 04:38:22;;;;;;;8.63;1.38;;;;;;;;;;5126334;27;20062;-75
2023/03/03 04:40:56;;;;;;;2.92;1.60;;;;;;;;;;5126681;27;20063;-75
2023/03/03 04:43:29;;;;;;;2.53;1.67;;;;;;;;;;5126904;27;20505;-76
2023/03/03 04:46:01;;;;;;;2.88;1.35;;;;;;;;;;5126518;27;20047;-75
2023/03/03 04:48:32;;;;;;;2.58;1.40;;;;;;;;;;5125938;27;20066;-72
2023/03/03 04:51:03;;;;;;;4.80;1.52;;;;;;;;;;5128676;27;20058;-72
2023/03/03 04:53:37;;;;;;;5.13;1.25;;;;;;;;;;5126839;27;20051;-76
2023/03/03 04:56:10;;;;;;;5.78;1.60;;;;;;;;;;5126094;27;20050;-75
2023/03/03 04:58:40;;;;;;;5.35;1.17;;;;;;;;;;5127228;27;20039;-71
2023/03/03 05:01:13;;;;;;;2.35;1.52;;;;;;;;;;5126327;27;20612;-74
2023/03/03 05:03:43;;;;;;;2.03;1.40;;;;;;;;;;5126478;27;20051;-71
2023/03/03 05:06:14;;;;;;;2.45;1.50;;;;;;;;;;5125902;27;20409;-73
2023/03/03 05:08:46;;;;;;;3.22;1.70;;;;;;;;;;5128153;27;20505;-74
2023/03/03 05:11:17;;;;;;;3.95;1.52;;;;;;;;;;5126874;27;20523;-73
2023/03/03 05:13:47;;;;;;;4.55;1.70;;;;;;;;;;5127602;27;20054;-72
2023/03/03 05:16:17;;;;;;;3.15;1.67;;;;;;;;;;5128065;27;20050;-75
2023/03/03 05:18:49;;;;;;;4.15;1.98;;;;;;;;;;5128351;27;20050;-73
2023/03/03 05:21:21;;;;;;;1.77;1.65;;;;;;;;;;5127538;27;20047;-73
2023/03/03 05:23:51;;;;;;;6.90;1.63;;;;;;;;;;5128184;27;20455;-74
2023/03/03 05:26:21;;;;;;;4.40;1.23;;;;;;;;;;5127240;27;20046;-73
2023/03/03 05:28:54;;;;;;;5.88;1.55;;;;;;;;;;5126072;27;20070;-74
2023/03/03 05:31:26;;;;;;;6.22;1.60;;;;;;;;;;5127534;27;20051;-73
2023/03/03 05:33:56;;;;;;;5.80;1.40;;;;;;;;;;5127622;27;20051;-75
2023/03/03 05:36:26;;;;;;;6.90;2.05;;;;;;;;;;5127604;27;20047;-72
2023/03/03 05:38:58;;;;;;;2.40;1.33;;;;;;;;;;5127347;27;20447;-74
2023/03/03 05:41:29;;;;;;;3.20;1.20;;;;;;;;;;5128140;27;20039;-73
2023/03/03 05:44:00;;;;;;;5.57;1.95;;;;;;;;;;5127704;27;20051;-75
2023/03/03 05:46:30;;;;;;;2.25;1.65;;;;;;;;;;5128019;27;20054;-73
2023/03/03 05:49:01;;;;;;;2.83;1.45;;;;;;;;;;5128492;28;20048;-76
2023/03/03 05:51:32;;;;;;;4.82;1.60;;;;;;;;;;5127043;27;21156;-74
2023/03/03 05:54:03;;;;;;;3.38;1.80;;;;;;;;;;5127418;28;20054;-72
2023/03/03 05:56:33;;;;;;;3.72;1.67;;;;;;;;;;5127282;28;20046;-75
2023/03/03 05:59:04;;;;;;;6.57;1.80;;;;;;;;;;5127138;28;20066;-73
2023/03/03 06:01:35;;;;;;;7.40;1.73;;;;;;;;;;5127795;28;20835;-73
2023/03/03 06:04:05;;;;;;;3.65;1.60;;;;;;;;;;5127459;28;20055;-74
2023/03/03 06:06:35;;;;;;;7.63;1.45;;;;;;;;;;5127289;28;20062;-75
2023/03/03 06:09:05;;;;;;;2.15;1.48;;;;;;;;;;5127668;28;20062;-75
2023/03/03 06:11:36;;;;;;;3.92;1.85;;;;;;;;;;5127435;28;20043;-74
2023/03/03 06:14:07;;;;;;;8.82;1.73;;;;;;;;;;5128092;28;20478;-75
2023/03/03 06:16:38;;;;;;;6.85;1.52;;;;;;;;;;5126944;28;20413;-74
2023/03/03 06:19:09;;;;;;;2.95;1.35;;;;;;;;;;5127294;28;20039;-72
2023/03/03 06:21:40;;;;;;;7.03;1.70;;;;;;;;;;5127249;28;20050;-72
2023/03/03 06:24:11;;;;;;;4.75;1.42;;;;;;;;;;5127473;28;20031;-75
2023/03/03 06:26:42;;;;;;;3.53;1.38;;;;;;;;;;5126308;28;20046;-75
2023/03/03 06:29:12;;;;;;;4.78;1.60;;;;;;;;;;5127265;28;20039;-74
2023/03/03 06:31:44;;;;;;;3.08;1.65;;;;;;;;;;5127261;28;20047;-74
2023/03/03 06:34:16;;;;;;;3.05;1.60;;;;;;;;;;5125898;27;20055;-74
2023/03/03 06:36:46;;;;;;;3.05;1.35;;;;;;;;;;5127298;28;20058;-75
2023/03/03 06:39:16;;;;;;;4.82;1.83;;;;;;;;;;5127757;28;20047;-73
2023/03/03 06:41:48;;;;;;;3.55;1.30;;;;;;;;;;5127610;28;20043;-74
2023/03/03 06:44:18;;;;;;;3.20;1.63;;;;;;;;;;5125626;28;20047;-73
2023/03/03 06:46:48;;;;;;;3.80;1.85;;;;;;;;;;5126664;28;20552;-75
2023/03/03 06:49:19;;;;;;;3.53;1.45;;;;;;;;;;5126938;28;20059;-74
2023/03/03 06:51:49;;;;;;;7.97;1.60;;;;;;;;;;5126968;28;20050;-71
2023/03/03 06:54:27;;;;;;;4.88;1.40;;;;;;;;;;5127235;28;20050;-75
2023/03/03 06:57:03;;;;;;;4.90;1.40;;;;;;;;;;5127020;28;20532;-74
2023/03/03 06:59:33;;;;;;;4.82;1.17;;;;;;;;;;5127288;28;20043;-71
2023/03/03 07:02:15;;;;;;;4.25;1.35;;;;;;;;;;5127812;27;20055;-74
2023/03/03 07:04:47;;;;;;;5.63;1.70;;;;;;;;;;5131254;27;20051;-74
2023/03/03 07:07:20;;;;;;;2.53;1.48;;;;;;;;;;5130405;27;20051;-73
2023/03/03 07:09:53;;;;;;;5.90;1.40;;;;;;;;;;5128580;27;20063;-75
2023/03/03 07:12:28;;;;;;;3.33;1.83;;;;;;;;;;5130353;27;20043;-75
2023/03/03 07:15:22;;;;;;;5.10;1.70;;;;;;;;;;5130195;27;20820;-74
2023/03/03 07:18:01;;;;;;;3.03;1.60;;;;;;;;;;5130273;27;20039;-74
2023/03/03 07:20:39;;;;;;;2.20;1.40;;;;;;;;;;5130378;27;20050;-76
2023/03/03 07:23:18;;;;;;;4.88;1.60;;;;;;;;;;5129573;27;21251;-74
2023/03/03 07:25:49;;;;;;;6.13;1.52;;;;;;;;;;5130039;27;20048;-72
2023/03/03 07:28:22;;;;;;;7.53;1.52;;;;;;;;;;5130324;27;20041;-73
2023/03/03 07:30:54;;;;;;;3.08;1.35;;;;;;;;;;5130145;27;20054;-74
2023/03/03 07:33:35;;;;;;;3.03;1.48;;;;;;;;;;5129934;27;20050;-72
2023/03/03 07:36:19;;;;;;;4.50;1.67;;;;;;;;;;5130002;27;20051;-73
2023/03/03 07:39:22;;;;;;;7.85;2.00;;;;;;;;;;5128623;27;20501;-72
2023/03/03 07:41:53;;;;;;;2.55;1.15;;;;;;;;;;5129200;27;20059;-75
2023/03/03 07:44:37;;;;;;;3.03;1.85;;;;;;;;;;5129862;27;20050;-74
2023/03/03 07:47:29;;;;;;;5.53;1.55;;;;;;;;;;5129952;27;20377;-74
2023/03/03 07:50:14;;;;;;;8.63;2.05;;;;;;;;;;5129564;27;20047;-73
2023/03/03 07:52:55;;;;;;;4.15;1.95;;;;;;;;;;5129468;27;20058;-73
2023/03/03 07:55:34;;;;;;;4.50;1.52;;;;;;;;;;5130324;27;20031;-75
2023/03/03 07:58:14;;;;;;;3.25;1.40;;;;;;;;;;5129764;27;20043;-73
2023/03/03 08:00:45;;;;;;;2.10;1.27;;;;;;;;;;5129373;27;20536;-71
2023/03/03 08:03:19;;;;;;;6.20;1.50;;;;;;;;;;5127752;27;20600;-72
2023/03/03 08:05:51;;;;;;;4.13;1.98;;;;;;;;;;5129133;27;20047;-72
2023/03/03 08:08:31;;;;;;;6.22;1.92;;;;;;;;;;5128869;27;20556;-74
2023/03/03 08:11:03;;;;;;;5.82;1.50;;;;;;;;;;5129226;27;20058;-73
2023/03/03 08:13:40;;;;;;;5.00;1.70;;;;;;;;;;5129500;27;20043;-73
2023/03/03 08:16:10;;;;;;;4.40;1.60;;;;;;;;;;5128992;27;20054;-73
2023/03/03 08:18:47;;;;;;;4.70;1.60;;;;;;;;;;5129539;27;20058;-75
2023/03/03 08:21:23;;;;;;;3.08;1.45;;;;;;;;;;5129084;27;20517;-73
2023/03/03 08:23:53;;;;;;;;;;;;;;;;;;5129794;27;20047;-72
2023/03/03 08:26:25;;;;;;;2.78;1.63;;;;;;;;;;5129573;27;19923;-74
2023/03/03 08:28:55;;;;;;;1.95;1.70;;;;;;;;;;5128823;27;20051;-75
2023/03/03 08:31:26;;;;;;;8.60;1.95;;;;;;;;;;5126889;27;20064;-75
2023/03/03 08:34:10;;;;;;;4.43;1.70;;;;;;;;;;5127336;27;20054;-75
2023/03/03 08:36:40;;;;;;;6.05;1.88;;;;;;;;;;5128564;27;20039;-76
2023/03/03 08:39:10;;;;;;;3.78;1.30;;;;;;;;;;5129099;27;20039;-73
2023/03/03 08:41:43;;;;;;;5.07;1.70;;;;;;;;;;5128562;27;20520;-74
2023/03/03 08:44:14;;;;;;;4.45;1.63;;;;;;;;;;5129369;27;20050;-75
2023/03/03 08:46:46;;;;;;;2.33;1.70;;;;;;;;;;5128855;27;20043;-75
2023/03/03 08:49:16;;;;;;;4.60;1.52;;;;;;;;;;5128590;27;20410;-73
2023/03/03 08:51:46;;;;;;;4.70;1.40;;;;;;;;;;5128595;27;20042;-74
2023/03/03 08:54:16;;;;;;;7.80;2.33;;;;;;;;;;5127918;27;20043;-72
2023/03/03 08:56:47;;;;;;;4.03;2.03;;;;;;;;;;5128736;27;20047;-73
2023/03/03 08:59:19;;;;;;;3.97;1.95;;;;;;;;;;5128271;27;20054;-73
2023/03/03 09:01:49;;;;;;;6.38;2.05;;;;;;;;;;5128237;27;20043;-72
2023/03/03 09:04:19;;;;;;;3.05;1.38;;;;;;;;;;5129109;27;20051;-74
2023/03/03 09:06:49;;;;;;;3.38;1.92;;;;;;;;;;5128430;27;20047;-73
2023/03/03 09:09:20;;;;;;;5.22;1.70;;;;;;;;;;5129117;27;20039;-73
2023/03/03 09:12:01;;;;;;;7.72;2.03;;;;;;;;;;5128227;27;20039;-73
2023/03/03 09:14:32;;;;;;;5.93;1.80;;;;;;;;;;5128608;27;20066;-75
2023/03/03 09:17:27;;;;;;;3.92;2.00;;;;;;;;;;5128213;27;20035;-76
2023/03/03 09:20:11;;;;;;;5.68;1.80;;;;;;;;;;5118135;27;20074;-73
2023/03/03 09:22:43;;;;;;;5.95;1.80;;;;;;;;;;5128093;27;20044;-74
2023/03/03 09:25:36;;;;;;;2.00;1.67;;;;;;;;;;5127571;27;20054;-75
2023/03/03 09:28:30;;;;;;;7.05;2.17;;;;;;;;;;5121127;27;20528;-75
2023/03/03 09:31:04;;;;;;;6.60;2.03;;;;;;;;;;5127779;27;20039;-78
2023/03/03 09:33:46;;;;;;;7.45;2.00;;;;;;;;;;5127757;27;20062;-75
2023/03/03 09:36:35;;;;;;;10.13;1.77;;;;;;;;;;5127666;27;20054;-76
2023/03/03 09:39:21;;;;;;;4.38;2.03;;;;;;;;;;5127969;27;20043;-74
2023/03/03 09:42:24;;;;;;;2.90;1.95;;;;;;;;;;5125833;27;20051;-74
2023/03/03 09:45:48;;;;;;;4.13;2.05;;;;;;;;;;5127414;27;20390;-76
2023/03/03 09:48:43;;;;;;;3.55;2.53;;;;;;;;;;5043619;28;20057;-72
2023/03/03 09:51:26;;;;;;;7.82;2.50;;;;;;;;;;5127594;28;20051;-73
2023/03/03 09:54:07;;;;;;;6.45;2.30;;;;;;;;;;5127752;28;20043;-75
2023/03/03 09:57:10;;;;;;;3.15;2.25;;;;;;;;;;5128323;28;20058;-76
2023/03/03 09:59:48;;;;;;;6.20;2.10;;;;;;;;;;5113135;28;20062;-73
2023/03/03 10:02:29;;;;;;;5.07;1.77;;;;;;;;;;5127549;28;20501;-73
2023/03/03 10:05:18;;;;;;;3.90;1.90;;;;;;;;;;5127215;28;20047;-77
2023/03/03 10:07:59;;;;;;;2.58;2.10;;;;;;;;;;5127440;28;20607;-73
2023/03/03 10:10:52;;;;;;;9.60;2.10;;;;;;;;;;5127049;28;20051;-75
2023/03/03 10:13:54;;;;;;;8.50;2.10;;;;;;;;;;5127530;28;20043;-77
2023/03/03 10:16:37;;;;;;;10.93;1.88;;;;;;;;;;5109009;28;20077;-72
2023/03/03 10:19:29;;;;;;;5.90;1.60;;;;;;;;;;5127718;28;20070;-75
2023/03/03 10:22:19;;;;;;;6.88;1.83;;;;;;;;;;5127888;28;20050;-76
2023/03/03 10:25:21;;;;;;;7.32;1.83;;;;;;;;;;5127521;28;20039;-76
2023/03/03 10:28:01;;;;;;;3.42;1.70;;;;;;;;;;5127140;28;20043;-72
2023/03/03 10:30:57;;;;;;;17.42;3.53;;;;;;;;;;5127291;28;20058;-75
2023/03/03 10:33:59;;;;;;;11.82;2.30;;;;;;;;;;5127375;28;20676;-73
2023/03/03 10:36:47;;;;;;;10.85;2.58;;;;;;;;;;5127422;27;20046;-74
2023/03/03 10:40:09;;;;;;;3.60;2.22;;;;;;;;;;5131350;27;20039;-74
2023/03/03 10:42:54;;;;;;;3.92;1.73;;;;;;;;;;5078930;28;20534;-75
2023/03/03 10:45:42;;;;;;;11.35;2.60;;;;;;;;;;5090148;28;20048;-75
2023/03/03 10:48:29;;;;;;;13.05;2.70;;;;;;;;;;5090065;28;20412;-74
2023/03/03 10:51:14;;;;;;;8.25;2.75;;;;;;;;;;5089705;28;20056;-74
2023/03/03 10:54:16;;;;;;;10.85;1.90;;;;;;;;;;5089807;28;20055;-73
2023/03/03 10:57:03;;;;;;;11.13;1.65;;;;;;;;;;5108265;28;20048;-75
2023/03/03 11:00:16;;;;;;;18.60;2.03;;;;;;;;;;5110628;28;20532;-73
2023/03/03 11:03:17;;;;;;;40.17;2.60;;;;;;;;;;5105475;28;20056;-74
2023/03/03 11:05:52;;;;;;;35.28;2.20;;;;;;;;;;5110658;28;20054;-74
2023/03/03 11:08:46;;;;;;;27.83;2.25;;;;;;;;;;5109800;28;20048;-74
2023/03/03 11:11:28;;;;;;;17.25;3.15;;;;;;;;;;5110653;28;20051;-75
2023/03/03 11:14:23;;;;;;;29.75;3.17;;;;;;;;;;5110550;28;20101;-74
2023/03/03 11:17:11;;;;;;;16.60;2.10;;;;;;;;;;5110163;28;20047;-74
2023/03/03 11:19:44;;;;;;;;;;;;;;;;;;5110358;28;20036;-75
2023/03/03 11:22:37;;;;;;;18.73;2.13;;;;;;;;;;5108421;28;19924;-78
2023/03/03 11:25:29;;;;;;;14.35;1.88;;;;;;;;;;5109584;28;20047;-76
2023/03/03 11:28:13;;;;;;;10.70;1.88;;;;;;;;;;5109550;28;20425;-79
2023/03/03 11:30:51;;;;;;;6.65;1.80;;;;;;;;;;5110010;28;20054;-76
2023/03/03 11:33:30;;;;;;;3.60;1.95;;;;;;;;;;5109022;28;20048;-77
2023/03/03 11:36:34;;;;;;;12.15;3.30;;;;;;;;;;5108161;28;20051;-75
2023/03/03 11:39:15;;;;;;;12.77;2.40;;;;;;;;;;5109265;28;20049;-76
2023/03/03 11:42:04;;;;;;;10.50;2.13;;;;;;;;;;5109565;28;20042;-74
2023/03/03 11:45:02;;;;;;;11.55;2.63;;;;;;;;;;5109390;28;20070;-75
2023/03/03 11:47:48;;;;;;;11.25;1.73;;;;;;;;;;5091288;28;20063;-75
2023/03/03 11:50:40;;;;;;;23.45;2.67;;;;;;;;;;5109408;28;20048;-76
2023/03/03 11:53:31;;;;;;;20.05;2.15;;;;;;;;;;5108263;28;20048;-74
2023/03/03 11:56:17;;;;;;;14.38;2.00;;;;;;;;;;5107883;27;20063;-74
2023/03/03 11:59:22;;;;;;;6.55;2.22;;;;;;;;;;5110082;28;20047;-76
2023/03/03 12:01:56;;;;;;;13.68;2.08;;;;;;;;;;5092563;28;20498;-77
2023/03/03 12:04:45;;;;;;;7.30;2.65;;;;;;;;;;5108607;28;20055;-74
2023/03/03 12:07:19;;;;;;;6.13;1.75;;;;;;;;;;5108761;28;20380;-74
2023/03/03 12:09:58;;;;;;;13.05;2.53;;;;;;;;;;5109184;28;20066;-75
2023/03/03 12:12:42;;;;;;;10.68;2.92;;;;;;;;;;5108655;28;20052;-75
2023/03/03 12:15:35;;;;;;;9.63;2.97;;;;;;;;;;5108439;28;20032;-74
2023/03/03 12:18:25;;;;;;;10.32;3.00;;;;;;;;;;5108598;28;20039;-74
2023/03/03 12:21:30;;;;;;;13.13;2.90;;;;;;;;;;5108814;28;20077;-74
2023/03/03 12:24:35;;;;;;;9.00;2.15;;;;;;;;;;5107162;28;20051;-76
2023/03/03 12:27:32;;;;;;;8.90;2.00;;;;;;;;;;5108684;28;20039;-73
2023/03/03 12:30:16;;;;;;;5.55;1.80;;;;;;;;;;5108611;28;20422;-79
2023/03/03 12:33:13;;;;;;;8.20;2.00;;;;;;;;;;5108351;28;20039;-75
2023/03/03 12:35:55;;;;;;;10.65;2.30;;;;;;;;;;5107522;28;20525;-74
2023/03/03 12:38:31;;;;;;;13.65;3.30;;;;;;;;;;5108103;28;20050;-75
2023/03/03 12:41:15;;;;;;;9.73;2.30;;;;;;;;;;5106532;28;20051;-75
2023/03/03 12:44:05;;;;;;;8.00;2.03;;;;;;;;;;5107018;28;20482;-75
2023/03/03 12:46:56;;;;;;;13.95;2.40;;;;;;;;;;5106597;28;20047;-75
2023/03/03 12:49:50;;;;;;;7.85;2.53;;;;;;;;;;5107242;28;20036;-75
2023/03/03 12:52:49;;;;;;;6.75;2.78;;;;;;;;;;5106686;28;20056;-75
2023/03/03 12:55:46;;;;;;;4.05;1.83;;;;;;;;;;5107921;28;20529;-74
2023/03/03 12:58:59;;;;;;;5.47;1.90;;;;;;;;;;5103819;28;20064;-76
2023/03/03 13:01:38;;;;;;;10.20;1.65;;;;;;;;;;5107458;28;20051;-73
2023/03/03 13:04:41;;;;;;;8.40;1.90;;;;;;;;;;5107770;28;20114;-75
2023/03/03 13:07:18;;;;;;;5.60;1.92;;;;;;;;;;5107475;28;20070;-73
2023/03/03 13:10:04;;;;;;;7.18;1.95;;;;;;;;;;5107831;28;20050;-73
2023/03/03 13:12:45;;;;;;;7.78;2.70;;;;;;;;;;5107820;28;20044;-73
2023/03/03 13:15:16;;;;;;;5.88;1.50;;;;;;;;;;5107151;28;20506;-73
2023/03/03 13:17:55;;;;;;;3.90;1.52;;;;;;;;;;5106820;27;20051;-73
2023/03/03 13:20:49;;;;;;;6.57;1.88;;;;;;;;;;5107491;28;20043;-74
2023/03/03 13:23:46;;;;;;;6.15;1.70;;;;;;;;;;5107713;28;20494;-76
2023/03/03 13:26:40;;;;;;;5.82;2.83;;;;;;;;;;5107082;28;20043;-72
2023/03/03 13:29:20;;;;;;;5.90;1.98;;;;;;;;;;5106848;28;20371;-73
2023/03/03 13:32:00;;;;;;;7.00;1.67;;;;;;;;;;5106880;28;20406;-74
2023/03/03 13:35:01;;;;;;;6.68;1.95;;;;;;;;;;5106925;28;20047;-75
2023/03/03 13:37:42;;;;;;;6.88;1.80;;;;;;;;;;5107652;28;20509;-78
2023/03/03 13:40:14;;;;;;;7.22;1.70;;;;;;;;;;5105947;28;20054;-75
2023/03/03 13:43:14;;;;;;;10.55;2.20;;;;;;;;;;5107134;28;20086;-75
2023/03/03 13:45:50;;;;;;;5.40;1.75;;;;;;;;;;5101150;28;20059;-75
2023/03/03 13:48:42;;;;;;;6.75;1.85;;;;;;;;;;5106787;28;20055;-75
2023/03/03 13:51:49;;;;;;;3.58;1.40;;;;;;;;;;5107603;28;20046;-74
2023/03/03 13:54:56;;;;;;;14.32;1.80;;;;;;;;;;5107070;28;20075;-74
2023/03/03 13:58:04;;;;;;;5.50;1.42;;;;;;;;;;5106665;28;20036;-75
2023/03/03 14:01:07;;;;;;;7.03;1.73;;;;;;;;;;5107250;28;20048;-76
2023/03/03 14:03:52;;;;;;;7.82;1.77;;;;;;;;;;5088477;28;20059;-75
2023/03/03 14:06:26;;;;;;;3.55;1.75;;;;;;;;;;5107186;28;20573;-74
2023/03/03 14:09:20;;;;;;;10.63;3.33;;;;;;;;;;5106716;28;20047;-75
2023/03/03 14:12:03;;;;;;;3.78;1.73;;;;;;;;;;5108874;28;20070;-75
2023/03/03 14:15:03;;;;;;;9.60;2.42;;;;;;;;;;5111078;28;20515;-77
2023/03/03 14:17:45;;;;;;;5.43;2.22;;;;;;;;;;5074031;28;20062;-75
2023/03/03 14:20:26;;;;;;;3.83;1.85;;;;;;;;;;5111149;28;20044;-74
2023/03/03 14:22:58;;;;;;;;;;;;;;;;;;5110987;28;20051;-76
2023/03/03 14:25:51;;;;;;;7.78;2.35;;;;;;;;;;5111107;28;19927;-74
2023/03/03 14:28:24;;;;;;;4.38;1.90;;;;;;;;;;5111561;28;20048;-75
2023/03/03 14:30:57;;;;;;;11.15;2.10;;;;;;;;;;5111234;28;20051;-76
2023/03/03 14:33:31;;;;;;;3.22;1.52;;;;;;;;;;5110695;28;20410;-75
2023/03/03 14:36:05;;;;;;;7.90;1.90;;;;;;;;;;5111423;28;20059;-77
2023/03/03 14:38:40;;;;;;;9.98;2.42;;;;;;;;;;5111026;28;20051;-73
2023/03/03 14:41:13;;;;;;;5.70;2.10;;;;;;;;;;5110586;28;20058;-73
2023/03/03 14:43:56;;;;;;;4.43;1.80;;;;;;;;;;5111000;28;20051;-74
2023/03/03 14:46:32;;;;;;;9.75;2.50;;;;;;;;;;5108255;28;20035;-73
2023/03/03 14:49:15;;;;;;;8.13;2.75;;;;;;;;;;5110246;28;20047;-76
2023/03/03 14:51:47;;;;;;;7.55;2.42;;;;;;;;;;5110319;28;20042;-75
2023/03/03 14:54:26;;;;;;;4.55;2.03;;;;;;;;;;5110242;28;20048;-75
2023/03/03 14:56:56;;;;;;;5.80;2.20;;;;;;;;;;5110066;28;20044;-74
2023/03/03 14:59:27;;;;;;;7.82;2.28;;;;;;;;;;5110766;28;20066;-74
2023/03/03 15:02:28;;;;;;;10.77;2.05;;;;;;;;;;5110379;28;20043;-75
2023/03/03 15:05:32;;;;;;;8.30;2.40;;;;;;;;;;5109100;28;20051;-74
2023/03/03 15:08:07;;;;;;;6.10;1.90;;;;;;;;;;5076786;28;20518;-75
2023/03/03 15:10:43;;;;;;;7.90;2.00;;;;;;;;;;5109960;28;20047;-74
2023/03/03 15:13:20;;;;;;;8.57;2.25;;;;;;;;;;5110164;28;20059;-73
2023/03/03 15:15:59;;;;;;;14.25;2.95;;;;;;;;;;5110435;28;20579;-75
2023/03/03 15:18:31;;;;;;;4.47;1.80;;;;;;;;;;5110278;28;20059;-73
2023/03/03 15:21:06;;;;;;;8.20;2.05;;;;;;;;;;5110104;28;20062;-80
2023/03/03 15:23:45;;;;;;;10.18;3.58;;;;;;;;;;5109101;28;20676;-74
2023/03/03 15:26:15;;;;;;;5.47;2.15;;;;;;;;;;5109766;28;20047;-74
2023/03/03 15:28:46;;;;;;;5.43;3.03;;;;;;;;;;5109490;28;20052;-76
2023/03/03 15:31:37;;;;;;;11.35;2.15;;;;;;;;;;5109402;28;20410;-75
2023/03/03 15:34:34;;;;;;;2.42;1.73;;;;;;;;;;5109248;28;20035;-74
2023/03/03 15:37:50;;;;;;;6.00;1.88;;;;;;;;;;5109382;28;20044;-75
2023/03/03 15:40:48;;;;;;;4.65;2.30;;;;;;;;;;5094648;28;20055;-75
2023/03/03 15:43:21;;;;;;;3.10;1.70;;;;;;;;;;5109167;28;20051;-75
2023/03/03 15:46:33;;;;;;;8.45;2.00;;;;;;;;;;5109288;28;20039;-74
2023/03/03 15:49:11;;;;;;;2.00;1.73;;;;;;;;;;5085331;28;20430;-75
2023/03/03 15:51:42;;;;;;;5.18;2.30;;;;;;;;;;5109186;28;20414;-76
2023/03/03 15:54:48;;;;;;;9.65;2.33;;;;;;;;;;5109023;28;20051;-74
2023/03/03 15:57:40;;;;;;;7.03;1.85;;;;;;;;;;5108617;28;20058;-76